Ingleside, Maryland
Current Conditions -  °F | °C
As of 2:58 PM on Sunday 21 Dec 2014 (Local Time) from KDOV Reporting Station
Clear Clear  
Wind Chill: 36°   Ceiling: Unl
Heat Index: 41°   Visibility: 10mi
Dew Point: 24°   Wind: 8mph
Humidity: 52%   Direction: 330°NNW
Pressure: 30.26"   Gusts: NA
Location:  39.09°N, 75.88°W
Report Text: KDOV 211958Z AUTO 33007KT 10SM CLR 05/M04 A3026 RMK AO2 SLP250 T00501042
Loading
Personal Weather Stations






























Interactive Weather Map New forecast layout! Learn more

10-Day Weather Forecast

Advertisements
Track Severe Weather on mobile